Date,TemperatureHighF,TemperatureAvgF,TemperatureLowF,DewpointHighF,DewpointAvgF,DewpointLowF,HumidityHigh,HumidityAvg,HumidityLow,PressureMaxIn,PressureMinIn,WindSpeedMaxMPH,WindSpeedAvgMPH,GustSpeedMaxMPH,PrecipitationSumIn
2013-1-1,31,19,9,28,13,3,95,78,66,29.86,29.62,25,10,36,0.00
2013-1-2,16,7,-8,12,2,-12,91,79,62,30.16,29.79,21,4,30,0.00
2013-1-3,10,-4,-17,0,-10,-21,87,77,58,30.16,29.89,3,0,5,0.00
2013-1-4,33,20,0,28,16,-3,93,85,68,29.89,29.70,20,4,33,0.00
2013-1-5,32,24,8,27,17,6,90,75,62,30.19,29.74,32,8,42,0.00
2013-1-6,31,20,7,30,18,4,96,92,87,30.15,29.85,5,1,9,0.00
2013-1-7,30,20,3,29,15,1,96,84,59,30.30,29.91,18,3,20,0.00
2013-1-8,42,22,2,27,16,-1,96,81,52,30.35,30.12,11,1,15,0.00
2013-1-9,41,22,7,32,18,4,94,85,65,30.36,29.86,22,3,32,0.00
2013-1-10,40,34,26,33,27,23,92,74,65,30.51,29.95,30,9,37,0.00
2013-1-11,36,28,19,34,24,17,95,86,62,30.51,30.11,9,2,13,0.00
2013-1-12,42,37,35,40,36,33,98,95,90,30.13,30.05,8,2,12,0.00
2013-1-13,45,38,34,43,37,34,99,97,91,30.10,29.88,11,1,15,0.00
2013-1-14,52,40,33,47,34,25,99,80,51,30.23,29.79,26,4,31,0.00
2013-1-15,34,30,25,27,22,20,83,73,61,30.29,30.20,12,1,14,0.00
2013-1-16,29,27,24,28,24,21,95,91,84,30.20,29.73,8,1,8,0.00
2013-1-17,32,19,6,29,13,-2,97,78,49,30.10,29.73,16,3,23,0.00
2013-1-18,18,5,-8,1,-4,-12,86,68,43,30.29,30.07,22,3,32,0.00
2013-1-19,38,24,4,28,19,0,91,81,63,30.21,29.73,8,2,10,0.00
2013-1-20,45,32,16,33,22,9,92,68,51,29.86,29.39,32,11,46,0.00
2013-1-21,20,13,2,12,6,-1,88,74,49,29.97,29.76,14,2,23,0.00
2013-1-22,16,10,1,10,3,-10,90,73,52,29.99,29.73,19,4,27,0.00
2013-1-23,2,-4,-14,-4,-13,-19,79,66,46,30.08,29.98,16,5,24,0.00
2013-1-24,10,-5,-21,-6,-14,-25,81,66,43,30.27,30.02,23,5,38,0.00
2013-1-25,15,5,-8,3,-4,-12,83,66,46,30.28,30.04,12,3,20,0.00
2013-1-26,17,9,-2,7,0,-5,86,70,44,30.20,30.01,22,4,27,0.00
2013-1-27,18,10,0,7,-1,-6,84,64,34,30.44,30.21,18,4,20,0.00
2013-1-28,17,7,-4,15,4,-8,92,84,65,30.42,29.99,4,0,6,0.00
2013-1-29,32,21,9,31,19,7,95,91,86,30.15,30.01,7,1,10,0.00
2013-1-30,50,41,32,49,40,31,98,96,93,30.02,29.33,11,5,16,0.00
2013-1-31,49,34,23,48,23,8,97,65,50,29.43,28.92,34,17,46,0.00
2013-2-1,23,17,13,11,8,3,81,66,51,30.01,29.43,30,10,41,0.00
2013-2-2,21,14,6,16,8,2,91,78,59,30.10,29.97,12,2,19,0.00
2013-2-3,27,16,9,18,12,7,93,82,55,29.99,29.69,5,0,6,0.00
2013-2-4,24,17,7,15,8,-4,92,68,39,29.85,29.65,22,6,28,0.00
2013-2-5,23,11,-3,8,0,-7,85,64,39,29.96,29.85,5,1,8,0.00
2013-2-6,29,19,9,23,10,-5,87,69,42,30.29,29.83,21,4,27,0.00
2013-2-7,18,11,2,1,-3,-7,67,53,35,30.48,30.29,11,2,14,0.00
2013-2-8,23,18,14,21,14,1,94,84,53,30.40,29.88,6,0,8,0.00
2013-2-9,18,12,3,16,6,-3,91,75,61,30.26,29.86,15,4,21,0.00
2013-2-10,32,9,-10,9,-1,-14,86,67,30,30.39,30.26,3,0,5,0.00
2013-2-11,34,21,4,33,19,1,97,90,80,30.29,29.57,8,1,13,0.00
2013-2-12,35,34,31,33,30,26,96,87,81,29.79,29.56,16,6,27,0.00
2013-2-13,37,31,28,28,25,21,91,78,56,29.79,29.71,7,1,12,0.00
2013-2-14,36,29,24,27,23,19,92,77,53,29.92,29.70,8,1,11,0.00
2013-2-15,44,34,24,32,25,20,91,71,52,29.92,29.82,19,4,28,0.00
2013-2-16,31,26,18,25,16,6,88,66,51,29.94,29.84,11,2,15,0.00
2013-2-17,18,13,10,7,5,2,78,68,59,29.84,29.55,19,6,30,0.00
2013-2-18,25,14,6,3,0,-4,78,56,28,30.10,29.72,25,7,40,0.00
2013-2-19,41,24,5,32,13,-3,96,66,33,30.11,29.58,15,2,23,0.00
2013-2-20,32,26,22,31,22,18,96,86,69,29.69,29.54,16,5,21,0.00
2013-2-21,22,16,10,20,11,4,92,79,69,30.28,29.69,25,7,28,0.00
2013-2-22,35,26,18,24,21,16,91,80,60,30.39,30.22,13,1,16,0.00
2013-2-23,33,31,26,31,27,22,96,84,71,30.22,29.89,11,2,19,0.00
2013-2-24,36,32,30,34,31,29,97,96,92,29.89,29.74,6,0,7,0.00
2013-2-25,35,32,30,33,30,29,97,94,88,30.20,29.89,9,1,10,0.00
2013-2-26,41,34,29,34,30,28,98,87,68,30.29,30.12,9,2,13,0.00
2013-2-27,36,33,31,33,31,27,97,90,74,30.12,29.62,4,0,9,0.00
2013-2-28,43,35,31,37,33,30,98,92,77,29.62,29.54,6,0,8,0.00
2013-3-1,37,32,30,33,29,27,98,88,73,29.71,29.55,9,2,14,0.00
2013-3-2,35,29,24,28,26,22,96,87,71,29.72,29.67,10,1,14,0.00
2013-3-3,30,26,22,26,23,20,95,89,83,29.69,29.60,12,2,15,0.00
2013-3-4,28,24,22,23,21,20,98,88,77,29.82,29.63,22,6,25,0.00
2013-3-5,39,30,23,30,25,21,94,84,68,30.08,29.82,6,1,10,0.00
2013-3-6,39,33,27,31,27,25,95,79,61,30.17,30.06,16,3,22,0.00
2013-3-7,37,33,30,26,24,22,75,70,60,30.16,30.10,9,2,12,0.00
2013-3-8,43,33,27,27,24,23,87,71,47,30.28,30.09,9,2,16,0.00
2013-3-9,53,33,18,27,20,14,94,66,23,30.33,30.24,6,1,10,0.00
2013-3-10,51,37,19,28,23,17,93,63,34,30.34,30.15,11,2,15,0.00
2013-3-11,46,42,38,36,32,28,77,66,55,30.20,29.98,10,5,16,0.00
2013-3-12,48,44,37,47,42,36,97,92,77,30.00,29.67,20,4,28,0.00
2013-3-13,41,35,26,36,32,25,98,88,63,29.78,29.70,24,4,28,0.00
2013-3-14,29,24,17,27,18,7,97,78,59,29.83,29.68,25,6,26,0.00
2013-3-15,34,23,14,27,14,6,92,70,42,29.83,29.55,15,4,22,0.00
2013-3-16,29,24,16,24,15,10,92,71,53,29.86,29.67,13,4,21,0.00
2013-3-17,25,16,8,15,8,2,91,70,41,30.30,29.86,19,4,30,0.00
2013-3-18,33,20,3,14,5,0,87,56,29,30.38,30.14,6,0,8,0.00
2013-3-19,31,28,26,28,25,9,95,90,40,30.14,29.69,8,1,16,0.00
2013-3-20,33,27,21,28,23,17,96,84,67,29.69,29.60,14,4,24,0.00
2013-3-21,36,26,15,19,16,12,88,67,43,29.70,29.58,11,2,14,0.00
2013-3-22,34,24,10,24,17,8,93,76,53,29.72,29.59,20,4,24,0.00
2013-3-23,33,29,24,28,24,21,94,82,65,29.76,29.59,26,8,36,0.00
2013-3-24,37,32,24,27,25,21,88,75,60,29.82,29.75,16,4,26,0.00
2013-3-25,45,32,16,28,22,14,94,71,44,29.79,29.54,10,2,13,0.00
2013-3-26,44,36,29,28,25,20,82,65,40,29.78,29.59,13,2,15,0.00
2013-3-27,44,35,24,33,28,22,94,76,55,29.91,29.74,15,2,21,0.00
2013-3-28,48,38,32,38,33,30,97,84,59,30.03,29.89,9,1,14,0.00
2013-3-29,48,40,34,39,34,30,90,79,62,30.05,29.98,14,5,19,0.00
2013-3-30,49,39,27,32,25,16,95,62,29,30.09,30.02,20,4,27,0.00
2013-3-31,51,39,24,37,24,-100,89,63,37,30.09,29.76,10,4,26,0.00
2013-4-1,45,37,29,41,32,14,98,81,44,29.76,29.48,27,6,35,0.00
2013-4-2,33,28,23,20,15,9,79,60,41,29.83,29.71,28,12,38,0.00
2013-4-3,39,31,25,23,14,9,85,50,30,30.14,29.82,30,14,40,0.00
2013-4-4,51,39,26,22,16,8,59,42,23,30.21,29.90,16,6,22,0.00
2013-4-5,50,40,31,32,23,17,72,52,36,29.91,29.74,18,5,29,0.00
2013-4-6,39,30,22,17,10,5,72,45,26,30.27,29.90,19,6,29,0.00
2013-4-7,55,41,26,35,23,12,67,51,33,30.26,29.85,23,6,28,0.00
2013-4-8,55,45,39,38,33,30,76,64,44,30.11,29.86,12,4,20,0.00
2013-4-9,51,43,37,44,39,31,98,87,69,30.03,29.82,18,3,28,0.00
2013-4-10,49,42,38,46,40,37,98,93,78,29.98,29.90,7,1,12,0.00
2013-4-11,42,38,32,40,27,18,97,66,41,30.17,29.89,9,2,12,0.00
2013-4-12,34,32,30,32,27,20,95,84,56,30.17,29.83,8,2,16,0.00
2013-4-13,50,39,32,39,34,31,96,85,60,29.88,29.76,9,2,12,0.00
2013-4-14,45,37,29,39,34,27,98,88,66,30.19,29.86,18,4,22,0.00
2013-4-15,59,41,26,37,31,25,98,72,41,30.33,30.19,13,2,19,0.00
2013-4-16,57,50,42,54,42,34,94,74,59,30.28,29.93,15,4,27,0.00
2013-4-17,56,47,35,46,34,29,82,61,40,30.34,30.04,23,5,26,0.00
2013-4-18,61,44,29,40,32,26,94,68,43,30.37,30.01,21,4,25,0.00
2013-4-19,73,62,50,60,52,34,93,72,48,30.01,29.50,15,7,38,0.00
2013-4-20,51,44,37,48,33,21,96,67,40,30.22,29.62,23,9,35,0.00
2013-4-21,47,36,28,23,20,17,69,52,33,30.68,30.22,20,6,25,0.00
2013-4-22,54,39,21,28,21,18,92,55,29,30.71,30.55,19,6,21,0.00
2013-4-23,46,39,26,38,31,23,90,73,58,30.59,30.16,11,4,16,0.00
2013-4-24,75,55,37,47,39,34,93,63,25,30.17,29.67,14,3,19,0.00
2013-4-25,65,48,34,53,34,24,87,58,31,30.29,29.65,15,6,27,0.00
2013-4-26,54,41,26,37,31,24,94,71,43,30.45,30.29,14,2,20,0.00
2013-4-27,63,45,28,41,32,25,98,66,27,30.45,30.29,9,1,15,0.00
2013-4-28,70,52,29,39,32,-100,93,55,25,30.33,30.14,9,2,16,0.00
2013-4-29,67,56,40,44,40,36,86,55,37,30.20,30.11,14,3,20,0.00
2013-4-30,71,60,52,49,44,38,76,55,42,30.29,30.20,10,3,14,0.00
2013-5-1,79,61,39,45,38,30,91,48,22,30.42,30.30,8,1,14,0.00
2013-5-2,80,61,40,47,42,36,88,54,27,30.46,30.31,11,2,16,0.00
2013-5-3,71,57,40,45,38,27,76,50,33,30.50,30.32,11,3,14,0.00
2013-5-4,76,60,39,49,40,32,94,54,21,30.37,30.19,9,2,14,0.00
2013-5-5,78,61,39,47,38,34,88,47,24,30.27,30.12,9,2,13,0.00
2013-5-6,78,61,37,46,35,22,91,46,13,30.21,30.06,10,2,15,0.00
2013-5-7,83,62,37,50,40,31,89,49,19,30.13,30.03,5,1,11,0.00
2013-5-8,76,60,43,60,52,41,93,75,46,30.16,30.06,16,4,23,0.00
2013-5-9,72,62,54,61,57,52,97,84,54,30.06,29.87,20,2,22,0.00
2013-5-10,74,60,52,62,54,-100,99,87,58,29.96,29.84,6,1,11,0.00
2013-5-11,67,61,54,63,58,51,98,90,81,29.84,29.62,10,3,14,0.00
2013-5-12,61,52,43,52,42,-100,96,71,41,29.75,29.58,18,5,25,0.00
2013-5-13,48,44,39,35,30,25,85,60,48,30.03,29.74,20,8,31,0.00
2013-5-14,56,44,33,39,32,25,97,68,32,30.07,29.98,20,4,22,0.00
2013-5-15,63,45,27,49,37,25,95,75,36,30.04,29.63,18,4,25,0.00
2013-5-16,72,51,42,52,23,-100,98,67,26,29.86,29.59,30,6,44,0.00
2013-5-17,64,53,45,44,36,-100,89,64,41,30.22,29.86,14,4,24,0.00
2013-5-18,72,55,35,48,39,30,97,61,22,30.29,30.21,10,2,13,0.00
2013-5-19,68,54,41,56,48,39,96,81,52,30.29,30.15,10,2,20,0.00
2013-5-20,67,60,54,63,58,53,97,93,83,30.15,29.98,13,2,14,0.00
2013-5-21,74,63,54,68,60,53,99,89,71,30.01,29.86,21,3,39,0.00
2013-5-22,75,62,52,68,60,51,98,92,75,29.91,29.80,9,3,13,0.00
2013-5-23,76,67,60,68,63,59,98,87,66,29.82,29.72,12,5,23,0.00
2013-5-24,62,52,44,61,50,42,98,95,87,29.96,29.65,14,3,18,0.00
2013-5-25,45,41,36,43,40,35,96,94,92,29.95,29.86,18,4,23,0.00
2013-5-26,49,43,38,43,40,36,96,87,72,30.07,29.80,14,4,24,0.00
2013-5-27,65,49,34,46,38,33,99,71,36,30.20,30.05,19,4,27,0.00
2013-5-28,72,55,34,47,41,33,98,66,35,30.23,30.12,9,2,14,0.00
2013-5-29,62,58,52,60,54,45,97,89,61,30.15,29.96,7,2,12,0.00
2013-5-30,84,70,54,67,62,53,99,79,51,30.09,29.98,19,4,20,0.00
2013-5-31,90,74,56,70,63,55,99,72,46,30.09,29.92,12,2,18,0.00
2013-6-1,89,75,59,70,65,58,97,74,40,29.98,29.83,18,3,24,0.00
2013-6-2,86,70,62,74,65,-100,99,89,54,29.87,29.66,35,3,51,0.00
2013-6-3,70,63,50,62,56,46,98,79,57,29.85,29.78,19,4,24,0.00
2013-6-4,63,53,44,47,44,41,92,73,52,30.11,29.85,15,6,28,0.00
2013-6-5,69,56,40,49,43,33,97,66,28,30.20,30.11,15,3,18,0.00
2013-6-6,70,57,48,53,49,45,96,76,44,30.19,30.08,6,1,8,0.00
2013-6-7,55,53,52,54,52,50,98,96,93,30.10,29.91,8,1,9,0.00
2013-6-8,66,57,52,59,55,51,99,92,78,30.03,29.76,16,4,22,0.00
2013-6-9,74,63,55,59,56,53,98,80,51,30.20,30.03,16,4,24,0.00
2013-6-10,73,60,49,59,53,48,99,82,41,30.22,30.02,9,1,15,0.00
2013-6-11,60,56,55,58,55,53,98,96,93,30.02,29.59,5,0,7,0.00
2013-6-12,66,57,53,57,54,52,98,89,67,29.86,29.60,12,3,20,0.00
2013-6-13,67,57,49,58,52,48,99,85,59,29.84,29.70,7,1,11,0.00
2013-6-14,77,63,52,60,54,50,99,75,43,29.85,29.71,11,3,19,0.00
2013-6-15,73,61,45,53,48,43,96,66,38,29.94,29.85,18,4,25,0.00
2013-6-16,70,58,46,62,54,45,97,86,59,29.94,29.70,15,2,18,0.00
2013-6-17,73,62,52,64,58,51,99,86,63,29.94,29.77,12,3,19,0.00
2013-6-18,69,57,49,55,52,46,99,84,50,29.98,29.91,8,1,10,0.00
2013-6-19,71,55,42,52,46,41,99,74,40,30.20,29.98,9,1,14,0.00
2013-6-20,76,55,40,52,46,39,98,76,31,30.26,30.19,8,1,14,0.00
2013-6-22,81,72,64,68,65,63,97,81,62,30.16,30.11,4,0,11,0.00
2013-6-23,86,71,63,74,68,62,99,90,63,30.14,29.98,14,2,21,0.00
2013-6-24,88,72,63,72,68,62,99,88,57,30.02,29.91,16,3,34,0.00
2013-6-25,86,70,61,74,66,60,99,90,55,29.95,29.75,13,2,16,0.00
2013-6-26,75,68,65,69,67,64,99,95,79,29.84,29.76,6,0,7,0.00
2013-6-27,82,72,61,72,66,60,99,85,64,29.83,29.75,9,2,15,0.00
2013-6-28,79,68,61,70,65,60,98,89,67,29.76,29.44,13,4,21,0.00
2013-6-29,82,70,63,68,65,62,98,85,52,29.70,29.50,14,3,19,0.00
2013-6-30,83,72,62,70,66,61,99,82,53,29.96,29.70,10,2,13,0.00
2013-7-1,74,68,62,69,66,61,99,93,83,30.11,29.95,4,0,7,0.00
2013-7-2,79,67,61,73,66,60,99,96,83,30.17,30.08,10,1,10,0.00
2013-7-3,85,74,65,75,70,64,99,88,66,30.21,30.14,11,2,15,0.00
2013-7-4,85,74,68,77,72,68,99,92,71,30.21,30.11,11,1,21,0.00
2013-7-5,87,75,66,76,71,66,100,88,63,30.17,30.08,13,1,18,0.00
2013-7-6,84,74,67,73,69,65,99,86,54,30.10,30.03,9,2,18,0.00
2013-7-7,87,73,62,73,66,61,99,83,53,30.06,29.94,7,1,11,0.00
2013-7-8,77,71,68,73,69,67,99,95,85,30.07,29.97,7,0,8,0.00
2013-7-9,83,74,68,73,70,67,99,87,68,30.10,30.03,10,2,16,0.00
2013-8-12,78,70,60,65,61,57,95,74,51,29.95,29.93,8,1,14,0.00
2013-8-13,71,62,56,66,59,-100,100,93,80,29.93,29.69,7,1,10,0.00
2013-8-14,67,60,53,61,56,51,99,85,64,29.96,29.69,22,6,25,0.00
2013-8-15,72,55,47,55,39,-100,98,73,47,30.12,29.96,14,4,19,0.00
2013-8-16,77,60,46,60,51,-100,99,79,50,30.24,30.11,12,2,14,0.00
2013-8-17,77,63,55,63,58,53,99,84,47,30.31,30.24,9,2,15,0.00
2013-8-18,78,61,50,63,54,-100,99,83,51,30.31,30.12,8,1,12,0.00
2013-8-19,81,63,52,64,49,-100,99,80,53,30.12,29.98,14,3,24,0.00
2013-8-20,83,68,56,67,60,-100,99,79,47,30.13,30.03,11,2,15,0.00
2013-8-21,85,70,58,70,63,57,99,81,48,30.16,30.03,11,2,16,0.00
2013-8-22,85,71,58,69,64,57,98,82,50,30.05,29.83,19,4,32,0.00
2013-8-23,74,64,52,65,56,49,99,78,44,30.22,29.88,10,2,16,0.00
2013-8-24,76,57,48,58,51,47,99,84,44,30.38,30.22,7,1,10,0.00
2013-8-25,79,60,48,60,52,-100,99,79,42,30.39,30.17,8,1,11,0.00
2013-8-26,73,66,60,69,64,59,97,92,84,30.19,29.91,6,1,10,0.00
2013-8-27,84,71,65,70,68,64,99,91,62,29.93,29.87,7,1,11,0.00
2013-8-28,86,79,67,70,68,64,89,71,51,30.01,29.88,6,1,8,0.00
2013-8-29,79,68,61,68,64,60,98,87,64,30.08,30.00,6,1,9,0.00
2013-8-30,84,71,64,70,66,62,97,84,57,30.04,29.81,16,2,16,0.00
2013-8-31,72,70,68,70,68,66,98,94,87,29.83,29.78,6,1,9,0.00
2013-9-1,82,72,67,70,66,-100,99,84,58,29.90,29.81,6,1,7,0.00
2013-9-2,79,71,63,71,68,62,99,91,75,29.88,29.71,8,1,19,0.00
2013-9-3,75,65,61,66,62,59,99,90,62,29.83,29.72,13,2,24,0.00
2013-9-4,74,64,56,62,58,53,98,84,54,29.94,29.83,16,4,21,0.00
2013-9-5,64,56,43,59,47,39,98,75,47,30.18,29.91,14,2,23,0.00
2013-9-6,67,50,36,48,42,35,99,77,39,30.25,30.09,13,2,18,0.00
2013-9-7,73,57,46,57,51,45,98,81,39,30.09,29.85,8,1,14,0.00
2013-9-8,61,55,43,55,46,-100,97,76,54,30.09,29.78,14,3,19,0.00
2013-9-9,68,52,34,51,42,33,98,74,43,30.20,30.09,10,2,16,0.00
2013-9-10,74,59,46,69,57,44,100,93,83,30.11,29.99,5,1,9,0.00
2013-9-11,91,74,61,75,69,60,99,86,54,30.05,29.92,14,3,23,0.00
2013-9-12,78,69,65,72,67,64,99,94,79,30.00,29.67,7,0,15,0.00
2013-9-13,66,59,53,66,58,52,99,97,92,29.84,29.64,10,1,14,0.00
2013-9-14,62,53,48,53,50,47,98,90,68,30.09,29.83,18,4,20,0.00
2013-9-15,68,51,41,55,45,-100,99,87,51,30.14,30.04,9,1,13,0.00
2013-9-16,55,50,37,53,46,35,98,85,57,30.32,30.02,9,2,16,0.00
2013-9-17,63,46,34,48,40,33,99,84,51,30.46,30.32,12,2,14,0.00
2013-9-18,48,40,38,41,39,37,99,98,96,30.36,30.17,2,0,4,0.00
2013-9-19,75,56,42,60,49,41,99,82,45,30.18,30.05,6,0,8,0.00
2013-9-20,77,60,46,61,52,45,99,78,46,30.11,29.97,9,2,15,0.00
2013-9-21,72,64,55,62,57,52,94,79,53,29.98,29.63,19,6,27,0.00
2013-9-22,65,56,48,62,51,-100,98,86,74,29.87,29.58,18,6,25,0.00
2013-9-23,51,47,44,43,41,39,92,82,73,30.03,29.87,12,7,19,0.00
2013-9-24,60,50,45,48,44,40,93,78,56,30.02,29.89,20,5,25,0.00
2013-9-25,62,54,46,52,48,44,95,83,66,30.03,29.92,7,1,11,0.00
2013-9-26,62,52,44,52,48,43,98,85,65,30.19,30.03,10,1,13,0.00
2013-9-27,69,56,50,54,51,47,96,83,56,30.32,30.19,8,1,10,0.00
2013-9-28,75,56,46,58,50,45,99,83,42,30.38,30.27,4,0,8,0.00
2013-9-29,74,55,43,57,48,-100,99,82,46,30.29,30.09,7,1,9,0.00
2013-9-30,75,55,42,56,48,41,99,82,41,30.13,29.98,7,1,9,0.00
2013-10-1,61,56,48,57,54,47,96,93,86,30.02,29.93,2,0,2,0.00
2013-10-2,75,60,49,63,54,48,99,83,54,29.97,29.83,22,3,22,0.00
2013-10-3,73,59,46,54,50,45,96,72,42,30.11,30.00,12,2,18,0.00
2013-10-4,64,53,41,56,49,40,99,89,72,30.13,30.05,2,0,5,0.00
2013-10-5,62,56,51,54,51,47,96,84,69,30.17,30.09,4,0,6,0.00
2013-10-6,55,50,48,50,47,45,97,89,71,30.19,30.10,7,2,12,0.00
2013-10-7,67,58,51,64,56,49,98,93,85,30.10,29.64,21,6,22,0.00
2013-10-8,59,51,37,49,42,35,94,72,44,30.40,29.90,18,5,20,0.00
2013-10-9,64,45,32,47,37,31,99,78,36,30.47,30.37,10,1,12,0.00
2013-10-10,65,47,32,51,41,31,98,83,48,30.39,30.22,5,0,6,0.00
2013-10-11,70,51,40,53,44,39,98,79,40,30.23,30.13,4,0,5,0.00
2013-10-12,70,52,36,56,46,35,98,83,56,30.40,30.23,11,3,16,0.00
2013-10-13,66,55,45,51,46,-100,95,77,55,30.42,30.33,10,3,12,0.00
2013-10-14,56,50,42,55,49,41,99,97,90,30.37,30.24,4,0,5,0.00
2013-10-15,64,56,51,58,54,51,99,92,78,30.29,30.14,7,1,9,0.00
2013-10-16,64,57,52,54,52,49,97,83,66,30.14,29.85,10,2,16,0.00
2013-10-17,65,56,49,56,52,47,97,85,62,29.85,29.73,9,2,14,0.00
2013-10-18,62,54,49,54,47,37,99,81,59,29.89,29.60,22,6,28,0.00
2013-10-19,62,49,35,49,41,34,97,76,55,29.91,29.70,8,2,14,0.00
2013-10-20,56,49,41,47,38,-100,94,70,46,29.98,29.64,21,7,30,0.00
2013-10-21,61,47,32,46,38,31,96,74,50,30.06,29.91,11,2,14,0.00
2013-10-22,55,49,35,48,40,30,88,72,61,29.91,29.67,13,3,21,0.00
2013-10-23,50,40,30,38,33,28,96,77,50,29.77,29.60,9,1,13,0.00
2013-10-24,46,38,30,37,32,26,96,80,52,29.85,29.66,28,6,29,0.00
2013-10-25,42,38,36,35,31,29,96,74,61,30.11,29.85,19,6,25,0.00
2013-10-26,45,37,28,37,32,26,96,83,52,30.11,29.80,18,4,21,0.00
2013-10-27,47,40,34,40,32,-100,85,75,57,29.99,29.74,18,4,28,0.00
2013-10-28,46,36,26,40,29,-100,94,80,57,30.36,29.98,18,4,26,0.00
2013-10-29,45,30,19,30,22,18,95,77,41,30.44,30.35,9,1,12,0.00
2013-10-30,45,33,24,35,28,21,93,84,67,30.35,30.18,8,1,12,0.00
2013-10-31,54,38,29,53,37,28,98,96,93,30.22,29.69,8,2,10,0.00
2013-11-1,67,60,51,61,52,42,98,77,46,29.66,29.27,31,8,38,0.00
2013-11-2,54,47,37,46,42,34,92,83,67,29.85,29.59,7,1,14,0.00
2013-11-3,38,32,22,34,21,-100,91,68,47,30.45,29.85,11,3,20,0.00
2013-11-4,40,27,17,24,19,15,99,72,41,30.66,30.45,6,1,10,0.00
2013-11-5,49,33,21,30,24,18,93,73,47,30.67,30.47,9,2,15,0.00
2013-11-6,58,44,30,45,37,27,92,77,56,30.45,29.91,10,3,16,0.00
2013-11-7,53,46,35,52,42,27,96,86,70,29.89,29.70,19,5,24,0.00
2013-11-8,38,34,29,32,28,24,92,79,66,30.05,29.79,20,7,30,0.00
2013-11-9,40,35,33,30,24,-100,84,67,55,30.15,29.95,18,4,21,0.00
2013-11-10,43,38,34,41,36,31,97,93,86,29.93,29.67,15,3,28,0.00
2013-11-11,42,37,32,34,31,28,94,79,64,30.06,29.80,22,7,30,0.00
2013-11-12,40,26,23,35,21,16,91,79,72,30.19,29.81,26,8,33,0.00
2013-11-13,31,25,19,21,16,13,87,70,50,30.26,30.01,19,5,26,0.00
2013-11-14,44,33,26,31,26,22,93,77,60,30.04,29.97,9,2,15,0.00
2013-11-15,57,36,23,33,25,20,95,70,23,30.19,30.04,9,1,11,0.00
2013-11-16,58,39,29,32,27,-100,89,67,31,30.28,30.17,4,0,7,0.00
2013-11-17,49,39,26,48,37,24,96,92,86,30.27,29.78,9,2,11,0.00
2013-11-18,57,51,39,56,42,30,98,74,47,29.78,29.39,24,9,35,0.00
2013-11-19,39,31,27,31,22,18,82,69,60,30.29,29.61,21,7,31,0.00
2013-11-20,38,28,20,21,18,16,88,66,45,30.63,30.30,11,2,14,0.00
2013-11-21,43,28,14,24,18,12,93,69,30,30.63,30.35,6,1,9,0.00
2013-11-22,35,32,28,34,30,21,98,91,74,30.35,29.78,2,0,4,0.00
2013-11-23,38,30,21,37,24,-100,98,83,61,29.93,29.71,24,7,37,0.00
2013-11-24,20,16,12,15,9,3,87,75,57,30.14,29.78,25,12,38,0.00
2013-11-25,27,18,8,16,6,0,77,59,37,30.32,30.14,15,5,26,0.00
2013-11-26,34,31,27,30,24,15,95,76,53,30.22,30.03,10,4,16,0.00
2013-11-27,36,34,31,35,32,28,98,96,92,30.00,29.31,16,4,25,0.00
2013-11-28,30,20,12,28,15,9,93,80,62,30.35,29.44,32,10,35,0.00
2013-11-29,25,12,4,14,7,2,91,81,52,30.73,30.35,5,1,7,0.00
2013-11-30,26,14,-3,18,5,-100,89,72,52,30.74,30.33,15,3,23,0.00
2013-12-1,34,30,26,30,25,14,97,83,61,30.33,30.04,9,1,15,0.00
2013-12-2,35,32,30,34,31,29,98,97,97,30.03,29.88,2,0,6,0.00
2013-12-3,33,32,31,33,32,31,99,99,98,29.96,29.89,4,0,8,0.00
2013-12-4,37,30,24,31,26,23,98,89,73,30.16,29.96,11,2,13,0.00
2013-12-5,42,34,23,41,33,22,97,95,89,30.16,29.85,12,3,16,0.00
2013-12-6,40,36,32,39,33,27,99,90,76,30.10,29.87,12,3,14,0.00
2013-12-7,33,28,20,27,18,-100,82,67,56,30.40,30.07,14,5,30,0.00
2013-12-8,28,23,19,17,13,10,81,66,50,30.52,30.40,10,3,15,0.00
2013-12-9,33,26,21,32,23,15,96,88,68,30.45,29.82,11,3,15,0.00
2013-12-10,34,28,19,32,21,9,92,75,58,29.86,29.73,13,5,19,0.00
2013-12-11,24,20,13,20,15,10,91,80,70,30.10,29.87,13,4,16,0.00
2013-12-12,17,12,5,12,5,0,90,73,53,30.22,29.91,12,4,19,0.00
2013-12-13,17,12,-3,13,6,-7,88,77,64,30.34,29.83,16,4,19,0.00
2013-12-14,7,1,-9,4,-5,-100,88,78,64,30.54,30.18,3,0,6,0.00
2013-12-15,20,14,7,18,11,4,93,90,88,30.18,29.49,6,1,8,0.00
2013-12-16,15,9,-6,12,3,-10,92,78,65,30.18,29.64,18,4,23,0.00
2013-12-17,9,-3,-18,6,-6,-22,88,84,75,30.19,30.02,5,0,6,0.00
2013-12-18,27,16,7,21,13,4,93,87,76,30.00,29.88,4,0,5,0.00
2013-12-19,33,27,20,31,24,18,95,88,76,30.04,29.86,6,1,10,0.00
2013-12-20,34,32,30,34,31,28,98,95,89,30.05,29.84,2,0,5,0.00
2013-12-21,49,40,33,48,38,-100,100,96,95,29.89,29.75,6,2,9,0.00
2013-12-22,38,34,33,38,34,32,99,99,98,29.93,29.65,8,1,8,0.00
2013-12-23,38,36,30,38,35,25,99,98,82,30.10,29.92,12,2,18,0.00
2013-12-24,30,20,7,25,14,2,92,81,66,30.24,30.04,13,4,23,0.00
2013-12-25,17,8,1,8,2,-3,87,78,57,30.47,30.23,11,2,18,0.00
2013-12-26,27,21,11,24,18,8,95,87,70,30.37,30.04,9,2,13,0.00
2013-12-27,31,26,22,24,21,19,95,84,65,30.16,30.10,15,4,20,0.00
2013-12-28,37,28,16,33,24,-100,94,88,83,30.11,29.92,8,1,8,0.00
2013-12-29,36,30,22,35,28,21,98,96,93,29.96,29.56,5,0,8,0.00
2013-12-30,35,21,1,34,17,-3,98,85,68,30.14,29.55,21,4,27,0.00
2013-12-31,16,8,2,11,3,-2,90,82,73,30.13,29.95,10,1,15,0.00
2014-1-1,16,11,-1,11,5,-7,88,78,67,30.37,30.06,10,2,12,0.00
2014-1-2,4,0,-3,1,-4,-8,86,82,74,30.37,29.94,4,1,6,0.00